Dong Fang You 2 — BXEC — position and weather

sailwx.info

Track history (hours):
 
Tides and Currents Weather Stations Pressure Air Temp Water Temp Dewpoint Dewpoint Depression Visibility Wind Speed Wind Dir Waves Ship Positions

Dong Fang You 2

Last reported at 2014-Jul-15 00:33 UTC. Time now 2014-Jul-25 18:22 UTC.
Position N 21°41' E 113°03'.
Warning: this ship's position is 10 days out of date.

Length 82 m; draft 4.6 m.

MMSI: 412464680.

Date/timePositionNaut miles runAvg speedWind from/ knotsBaromVisibWave heightAir tempDewpointWater temp
2014-Jul-15 00:33N 21°41' E 113°03'8 8.3
2014-Jul-14 23:33N 21°45' E 113°10'8 8.4
2014-Jul-14 22:33N 21°50' E 113°18'37 8.4
2014-Jul-14 18:12N 22°15' E 113°47'7 8.6
2014-Jul-14 17:23N 22°22' E 113°47'31 7.9
2014-Jul-14 13:31N 22°50' E 113°35'6 6.1
2014-Jul-14 12:33N 22°56' E 113°34'0 0.0
2014-Jul-14 11:29N 22°56' E 113°34'0 0.0
2014-Jul-14 10:31N 22°56' E 113°34'0 0.0
2014-Jul-14 09:31N 22°56' E 113°34'0 0.0
2014-Jul-14 08:33N 22°56' E 113°34'0 0.0
2014-Jul-14 07:33N 22°56' E 113°34'0 0.0
2014-Jul-14 06:33N 22°56' E 113°34'0 0.0
2014-Jul-14 05:33N 22°56' E 113°34'0 0.0
2014-Jul-14 04:33N 22°56' E 113°34'0 0.0
2014-Jul-14 03:33N 22°56' E 113°34'2 2.2
2014-Jul-14 02:33N 22°53' E 113°34'2 2.0
2014-Jul-14 01:20N 22°51' E 113°34'0 0.1
2014-Jul-14 00:33N 22°51' E 113°34'0 0.1
2014-Jul-13 23:33N 22°51' E 113°34'0 0.0
2014-Jul-13 22:27N 22°51' E 113°34'0 0.0
2014-Jul-13 21:33N 22°51' E 113°34'0 0.0
2014-Jul-13 20:30N 22°51' E 113°34'0 0.0
2014-Jul-13 19:27N 22°51' E 113°34'0 0.1
2014-Jul-13 18:29N 22°51' E 113°34'0 0.1
2014-Jul-13 17:33N 22°51' E 113°34'0 0.0
2014-Jul-13 16:26N 22°51' E 113°34'0 0.0
2014-Jul-13 15:27N 22°51' E 113°34'0 0.0
2014-Jul-13 14:33N 22°51' E 113°34'0 0.0
2014-Jul-13 13:33N 22°51' E 113°34'0 0.1
2014-Jul-13 12:17N 22°51' E 113°34'0 0.0
2014-Jul-13 11:25N 22°51' E 113°34'0 0.0
2014-Jul-13 10:33N 22°51' E 113°34'0 0.0
2014-Jul-13 08:33N 22°51' E 113°34'0 0.0
2014-Jul-13 07:15N 22°51' E 113°34'0 0.0
2014-Jul-13 06:32N 22°51' E 113°34'0 0.1
2014-Jul-13 05:33N 22°51' E 113°34'0 0.0
2014-Jul-13 04:25N 22°51' E 113°34'0 0.0
2014-Jul-13 03:33N 22°51' E 113°34'0 0.0
2014-Jul-13 02:19N 22°51' E 113°34'0 0.0
2014-Jul-13 01:33N 22°51' E 113°34'0 0.0
2014-Jul-13 00:33N 22°51' E 113°34'0 0.0
2014-Jul-12 23:31N 22°51' E 113°34'0 0.1
2014-Jul-12 22:33N 22°51' E 113°34'0 0.0
2014-Jul-12 21:20N 22°51' E 113°34'0 0.0
2014-Jul-12 20:26N 22°51' E 113°34'0 0.0
2014-Jul-12 19:33N 22°51' E 113°34'0 0.1
2014-Jul-12 18:33N 22°51' E 113°34'0 0.1
2014-Jul-12 17:30N 22°51' E 113°34'0 0.0
2014-Jul-12 16:32N 22°51' E 113°34'0 0.0
2014-Jul-12 15:31N 22°51' E 113°34'0 0.0
2014-Jul-12 14:30N 22°51' E 113°34'0 0.0
2014-Jul-12 13:33N 22°51' E 113°34'0 0.0
2014-Jul-12 12:06N 22°51' E 113°34'0 0.1
2014-Jul-12 11:34N 22°51' E 113°34'0 0.1
2014-Jul-12 10:29N 22°51' E 113°34'0 0.0
2014-Jul-12 09:08N 22°51' E 113°34'0 0.0
2014-Jul-12 07:31N 22°51' E 113°34'0 0.0
2014-Jul-12 05:12N 22°51' E 113°34'0 0.1
2014-Jul-12 04:33N 22°51' E 113°34'0 0.1
2014-Jul-12 03:31N 22°51' E 113°34'0 0.0
2014-Jul-12 02:26N 22°51' E 113°34'0 0.0
2014-Jul-12 01:31N 22°51' E 113°34'0 0.0
2014-Jul-11 22:31N 22°51' E 113°34'0 0.1
2014-Jul-11 21:33N 22°51' E 113°34'0 0.0
2014-Jul-11 20:33N 22°51' E 113°34'0 0.0
2014-Jul-11 19:33N 22°51' E 113°34'0 0.0
2014-Jul-11 18:33N 22°51' E 113°34'0 0.1
2014-Jul-11 17:30N 22°51' E 113°34'0 0.1
2014-Jul-11 16:15N 22°51' E 113°34'0 0.0
2014-Jul-11 14:18N 22°51' E 113°34'0 0.1
2014-Jul-11 13:22N 22°51' E 113°34'0 0.0
2014-Jul-11 12:08N 22°51' E 113°34'0 0.0
2014-Jul-11 11:27N 22°51' E 113°34'0 0.1
2014-Jul-11 10:33N 22°51' E 113°34'0 0.1
2014-Jul-11 09:32N 22°51' E 113°34'0 0.1
2014-Jul-11 08:32N 22°51' E 113°34'0 0.0
2014-Jul-11 07:25N 22°51' E 113°34'0 0.0
2014-Jul-11 06:25N 22°51' E 113°34'0 0.0
2014-Jul-11 05:24N 22°51' E 113°34'0 0.0
2014-Jul-11 04:31N 22°51' E 113°34'0 0.0
2014-Jul-11 03:32N 22°51' E 113°34'0 0.1
2014-Jul-11 02:32N 22°51' E 113°34'0 0.0
2014-Jul-11 01:30N 22°51' E 113°34'0 0.0
2014-Jul-11 00:22N 22°51' E 113°34'0 0.0
2014-Jul-10 23:13N 22°51' E 113°34'0 0.1
2014-Jul-10 22:30N 22°51' E 113°34'0 0.0
2014-Jul-10 21:32N 22°51' E 113°34'0 0.1
2014-Jul-10 20:26N 22°51' E 113°34'0 0.0
2014-Jul-10 19:33N 22°51' E 113°34'0 0.0
2014-Jul-10 18:33N 22°51' E 113°34'0 0.0
2014-Jul-10 17:33N 22°51' E 113°34'0 0.1
2014-Jul-10 16:33N 22°51' E 113°34'0 0.1
2014-Jul-10 15:15N 22°51' E 113°34'0 0.0
2014-Jul-10 13:28N 22°51' E 113°34'0 0.0
2014-Jul-10 12:34N 22°51' E 113°34'0 0.0
2014-Jul-10 11:33N 22°51' E 113°34'27 0.6
2014-Jul-08 12:33N 22°26' E 113°46'9 9.4
2014-Jul-08 11:33N 22°17' E 113°48'9 9.4
2014-Jul-08 10:33N 22°09' E 113°54'  
2014-Jul-05 07:07N 21°53' E 113°41'26 9.9
2014-Jul-05 04:32N 21°43' E 113°16'13 9.9
2014-Jul-05 03:12N 21°38' E 113°03'  
Track history (hours):
 
Tides and Currents Weather Stations Pressure Air Temp Water Temp Dewpoint Dewpoint Depression Visibility Wind Speed Wind Dir Waves Ship Positions

Dong Fang You 2

Last reported at 2014-Jul-15 00:33 UTC. Time now 2014-Jul-25 18:22 UTC.
Position N 21°41' E 113°03'.
Warning: this ship's position is 10 days out of date.

Length 82 m; draft 4.6 m.

MMSI: 412464680.

Date/timePositionNaut miles runAvg speedWind from/ knotsBaromVisibWave heightAir tempDewpointWater temp
2014-Jul-15 00:33N 21°41' E 113°03'8 8.3
2014-Jul-14 23:33N 21°45' E 113°10'8 8.4
2014-Jul-14 22:33N 21°50' E 113°18'37 8.4
2014-Jul-14 18:12N 22°15' E 113°47'7 8.6
2014-Jul-14 17:23N 22°22' E 113°47'31 7.9
2014-Jul-14 13:31N 22°50' E 113°35'6 6.1
2014-Jul-14 12:33N 22°56' E 113°34'0 0.0
2014-Jul-14 11:29N 22°56' E 113°34'0 0.0
2014-Jul-14 10:31N 22°56' E 113°34'0 0.0
2014-Jul-14 09:31N 22°56' E 113°34'0 0.0
2014-Jul-14 08:33N 22°56' E 113°34'0 0.0
2014-Jul-14 07:33N 22°56' E 113°34'0 0.0
2014-Jul-14 06:33N 22°56' E 113°34'0 0.0
2014-Jul-14 05:33N 22°56' E 113°34'0 0.0
2014-Jul-14 04:33N 22°56' E 113°34'0 0.0
2014-Jul-14 03:33N 22°56' E 113°34'2 2.2
2014-Jul-14 02:33N 22°53' E 113°34'2 2.0
2014-Jul-14 01:20N 22°51' E 113°34'0 0.1
2014-Jul-14 00:33N 22°51' E 113°34'0 0.1
2014-Jul-13 23:33N 22°51' E 113°34'0 0.0
2014-Jul-13 22:27N 22°51' E 113°34'0 0.0
2014-Jul-13 21:33N 22°51' E 113°34'0 0.0
2014-Jul-13 20:30N 22°51' E 113°34'0 0.0
2014-Jul-13 19:27N 22°51' E 113°34'0 0.1
2014-Jul-13 18:29N 22°51' E 113°34'0 0.1
2014-Jul-13 17:33N 22°51' E 113°34'0 0.0
2014-Jul-13 16:26N 22°51' E 113°34'0 0.0
2014-Jul-13 15:27N 22°51' E 113°34'0 0.0
2014-Jul-13 14:33N 22°51' E 113°34'0 0.0
2014-Jul-13 13:33N 22°51' E 113°34'0 0.1
2014-Jul-13 12:17N 22°51' E 113°34'0 0.0
2014-Jul-13 11:25N 22°51' E 113°34'0 0.0
2014-Jul-13 10:33N 22°51' E 113°34'0 0.0
2014-Jul-13 08:33N 22°51' E 113°34'0 0.0
2014-Jul-13 07:15N 22°51' E 113°34'0 0.0
2014-Jul-13 06:32N 22°51' E 113°34'0 0.1
2014-Jul-13 05:33N 22°51' E 113°34'0 0.0
2014-Jul-13 04:25N 22°51' E 113°34'0 0.0
2014-Jul-13 03:33N 22°51' E 113°34'0 0.0
2014-Jul-13 02:19N 22°51' E 113°34'0 0.0
2014-Jul-13 01:33N 22°51' E 113°34'0 0.0
2014-Jul-13 00:33N 22°51' E 113°34'0 0.0
2014-Jul-12 23:31N 22°51' E 113°34'0 0.1
2014-Jul-12 22:33N 22°51' E 113°34'0 0.0
2014-Jul-12 21:20N 22°51' E 113°34'0 0.0
2014-Jul-12 20:26N 22°51' E 113°34'0 0.0
2014-Jul-12 19:33N 22°51' E 113°34'0 0.1
2014-Jul-12 18:33N 22°51' E 113°34'0 0.1
2014-Jul-12 17:30N 22°51' E 113°34'0 0.0
2014-Jul-12 16:32N 22°51' E 113°34'0 0.0
2014-Jul-12 15:31N 22°51' E 113°34'0 0.0
2014-Jul-12 14:30N 22°51' E 113°34'0 0.0
2014-Jul-12 13:33N 22°51' E 113°34'0 0.0
2014-Jul-12 12:06N 22°51' E 113°34'0 0.1
2014-Jul-12 11:34N 22°51' E 113°34'0 0.1
2014-Jul-12 10:29N 22°51' E 113°34'0 0.0
2014-Jul-12 09:08N 22°51' E 113°34'0 0.0
2014-Jul-12 07:31N 22°51' E 113°34'0 0.0
2014-Jul-12 05:12N 22°51' E 113°34'0 0.1
2014-Jul-12 04:33N 22°51' E 113°34'0 0.1
2014-Jul-12 03:31N 22°51' E 113°34'0 0.0
2014-Jul-12 02:26N 22°51' E 113°34'0 0.0
2014-Jul-12 01:31N 22°51' E 113°34'0 0.0
2014-Jul-11 22:31N 22°51' E 113°34'0 0.1
2014-Jul-11 21:33N 22°51' E 113°34'0 0.0
2014-Jul-11 20:33N 22°51' E 113°34'0 0.0
2014-Jul-11 19:33N 22°51' E 113°34'0 0.0
2014-Jul-11 18:33N 22°51' E 113°34'0 0.1
2014-Jul-11 17:30N 22°51' E 113°34'0 0.1
2014-Jul-11 16:15N 22°51' E 113°34'0 0.0
2014-Jul-11 14:18N 22°51' E 113°34'0 0.1
2014-Jul-11 13:22N 22°51' E 113°34'0 0.0
2014-Jul-11 12:08N 22°51' E 113°34'0 0.0
2014-Jul-11 11:27N 22°51' E 113°34'0 0.1
2014-Jul-11 10:33N 22°51' E 113°34'0 0.1
2014-Jul-11 09:32N 22°51' E 113°34'0 0.1
2014-Jul-11 08:32N 22°51' E 113°34'0 0.0
2014-Jul-11 07:25N 22°51' E 113°34'0 0.0
2014-Jul-11 06:25N 22°51' E 113°34'0 0.0
2014-Jul-11 05:24N 22°51' E 113°34'0 0.0
2014-Jul-11 04:31N 22°51' E 113°34'0 0.0
2014-Jul-11 03:32N 22°51' E 113°34'0 0.1
2014-Jul-11 02:32N 22°51' E 113°34'0 0.0
2014-Jul-11 01:30N 22°51' E 113°34'0 0.0
2014-Jul-11 00:22N 22°51' E 113°34'0 0.0
2014-Jul-10 23:13N 22°51' E 113°34'0 0.1
2014-Jul-10 22:30N 22°51' E 113°34'0 0.0
2014-Jul-10 21:32N 22°51' E 113°34'0 0.1
2014-Jul-10 20:26N 22°51' E 113°34'0 0.0
2014-Jul-10 19:33N 22°51' E 113°34'0 0.0
2014-Jul-10 18:33N 22°51' E 113°34'0 0.0
2014-Jul-10 17:33N 22°51' E 113°34'0 0.1
2014-Jul-10 16:33N 22°51' E 113°34'0 0.1
2014-Jul-10 15:15N 22°51' E 113°34'0 0.0
2014-Jul-10 13:28N 22°51' E 113°34'0 0.0
2014-Jul-10 12:34N 22°51' E 113°34'0 0.0
2014-Jul-10 11:33N 22°51' E 113°34'27 0.6
2014-Jul-08 12:33N 22°26' E 113°46'9 9.4
2014-Jul-08 11:33N 22°17' E 113°48'9 9.4
2014-Jul-08 10:33N 22°09' E 113°54'  
2014-Jul-05 07:07N 21°53' E 113°41'26 9.9
2014-Jul-05 04:32N 21°43' E 113°16'13 9.9
2014-Jul-05 03:12N 21°38' E 113°03'  

Dump ship's entire track history